sensor_id;sensor_type;location;lat;lon;timestamp;temperature;humidity
10873;DHT22;34586;53.616;10.032;2023-03-22T00:00:26;9.40;99.90
10873;DHT22;34586;53.616;10.032;2023-03-22T00:02:54;9.50;99.90
10873;DHT22;34586;53.616;10.032;2023-03-22T00:05:20;9.50;99.90
10873;DHT22;34586;53.616;10.032;2023-03-22T00:07:46;9.60;99.90
10873;DHT22;34586;53.616;10.032;2023-03-22T00:10:15;9.60;99.90
10873;DHT22;34586;53.616;10.032;2023-03-22T00:12:42;9.70;99.90
10873;DHT22;34586;53.616;10.032;2023-03-22T00:15:08;9.70;99.90
10873;DHT22;34586;53.616;10.032;2023-03-22T00:17:35;9.70;99.90
10873;DHT22;34586;53.616;10.032;2023-03-22T00:20:02;9.90;99.90
10873;DHT22;34586;53.616;10.032;2023-03-22T00:22:31;9.80;99.90
10873;DHT22;34586;53.616;10.032;2023-03-22T00:24:56;9.90;99.90
10873;DHT22;34586;53.616;10.032;2023-03-22T00:27:22;10.00;99.90
10873;DHT22;34586;53.616;10.032;2023-03-22T00:29:50;9.90;99.90
10873;DHT22;34586;53.616;10.032;2023-03-22T00:32:15;10.00;99.90
10873;DHT22;34586;53.616;10.032;2023-03-22T00:34:41;10.20;99.90
10873;DHT22;34586;53.616;10.032;2023-03-22T00:37:07;9.90;99.90
10873;DHT22;34586;53.616;10.032;2023-03-22T00:39:32;10.00;99.90
10873;DHT22;34586;53.616;10.032;2023-03-22T00:41:58;9.90;99.90
10873;DHT22;34586;53.616;10.032;2023-03-22T00:44:23;9.90;99.90
10873;DHT22;34586;53.616;10.032;2023-03-22T00:46:49;9.90;99.90
10873;DHT22;34586;53.616;10.032;2023-03-22T00:49:15;10.00;99.90
10873;DHT22;34586;53.616;10.032;2023-03-22T00:51:41;10.10;99.90
10873;DHT22;34586;53.616;10.032;2023-03-22T00:54:07;9.90;99.90
10873;DHT22;34586;53.616;10.032;2023-03-22T00:56:32;9.90;99.90
10873;DHT22;34586;53.616;10.032;2023-03-22T00:59:02;9.90;99.90
10873;DHT22;34586;53.616;10.032;2023-03-22T01:01:27;10.30;99.90
10873;DHT22;34586;53.616;10.032;2023-03-22T01:03:53;10.00;99.90
10873;DHT22;34586;53.616;10.032;2023-03-22T01:06:19;9.80;99.90
10873;DHT22;34586;53.616;10.032;2023-03-22T01:08:45;10.00;99.90
10873;DHT22;34586;53.616;10.032;2023-03-22T01:11:11;10.00;99.90
10873;DHT22;34586;53.616;10.032;2023-03-22T01:13:37;10.10;99.90
10873;DHT22;34586;53.616;10.032;2023-03-22T01:16:04;10.10;99.90
10873;DHT22;34586;53.616;10.032;2023-03-22T01:18:30;10.10;99.90
10873;DHT22;34586;53.616;10.032;2023-03-22T01:20:56;10.10;99.90
10873;DHT22;34586;53.616;10.032;2023-03-22T01:23:23;10.10;99.90
10873;DHT22;34586;53.616;10.032;2023-03-22T01:25:48;10.10;99.90
10873;DHT22;34586;53.616;10.032;2023-03-22T01:28:14;10.20;99.90
10873;DHT22;34586;53.616;10.032;2023-03-22T01:30:39;10.20;99.90
10873;DHT22;34586;53.616;10.032;2023-03-22T01:33:05;10.30;99.90
10873;DHT22;34586;53.616;10.032;2023-03-22T01:35:32;10.20;99.90
10873;DHT22;34586;53.616;10.032;2023-03-22T01:37:58;10.20;99.90
10873;DHT22;34586;53.616;10.032;2023-03-22T01:40:25;10.30;99.90
10873;DHT22;34586;53.616;10.032;2023-03-22T01:42:52;10.20;99.90
10873;DHT22;34586;53.616;10.032;2023-03-22T01:45:42;10.20;99.90
10873;DHT22;34586;53.616;10.032;2023-03-22T01:48:40;10.20;99.90
10873;DHT22;34586;53.616;10.032;2023-03-22T01:51:16;10.20;99.90
10873;DHT22;34586;53.616;10.032;2023-03-22T01:53:51;10.20;99.90
10873;DHT22;34586;53.616;10.032;2023-03-22T01:56:20;10.20;99.90
10873;DHT22;34586;53.616;10.032;2023-03-22T01:58:47;10.20;99.90
10873;DHT22;34586;53.616;10.032;2023-03-22T02:01:13;10.30;99.90
10873;DHT22;34586;53.616;10.032;2023-03-22T02:04:05;10.30;99.90
10873;DHT22;34586;53.616;10.032;2023-03-22T02:06:34;10.30;99.90
10873;DHT22;34586;53.616;10.032;2023-03-22T02:09:07;10.30;99.90
10873;DHT22;34586;53.616;10.032;2023-03-22T02:11:36;10.30;99.90
10873;DHT22;34586;53.616;10.032;2023-03-22T02:16:47;10.30;99.90
10873;DHT22;34586;53.616;10.032;2023-03-22T02:46:08;10.10;99.90
10873;DHT22;34586;53.616;10.032;2023-03-22T02:51:44;10.10;99.90
10873;DHT22;34586;53.616;10.032;2023-03-22T02:54:21;10.00;99.90
10873;DHT22;34586;53.616;10.032;2023-03-22T02:57:20;10.00;99.90
10873;DHT22;34586;53.616;10.032;2023-03-22T02:59:48;10.00;99.90
10873;DHT22;34586;53.616;10.032;2023-03-22T03:02:15;10.00;99.90
10873;DHT22;34586;53.616;10.032;2023-03-22T03:04:48;10.00;99.90
10873;DHT22;34586;53.616;10.032;2023-03-22T03:07:18;9.90;99.90
10873;DHT22;34586;53.616;10.032;2023-03-22T03:09:46;9.90;99.90
10873;DHT22;34586;53.616;10.032;2023-03-22T03:12:23;9.90;99.90
10873;DHT22;34586;53.616;10.032;2023-03-22T03:14:50;9.90;99.90
10873;DHT22;34586;53.616;10.032;2023-03-22T03:25:56;10.00;99.90
10873;DHT22;34586;53.616;10.032;2023-03-22T03:31:09;10.10;99.90
10873;DHT22;34586;53.616;10.032;2023-03-22T03:33:44;10.20;99.90
10873;DHT22;34586;53.616;10.032;2023-03-22T03:36:15;10.20;99.90
10873;DHT22;34586;53.616;10.032;2023-03-22T03:38:45;10.20;99.90
10873;DHT22;34586;53.616;10.032;2023-03-22T03:41:15;10.30;99.90
10873;DHT22;34586;53.616;10.032;2023-03-22T03:43:42;10.30;99.90
10873;DHT22;34586;53.616;10.032;2023-03-22T03:46:10;10.30;99.90
10873;DHT22;34586;53.616;10.032;2023-03-22T03:48:37;10.30;99.90
10873;DHT22;34586;53.616;10.032;2023-03-22T03:51:04;10.40;99.90
10873;DHT22;34586;53.616;10.032;2023-03-22T03:53:30;10.40;99.90
10873;DHT22;34586;53.616;10.032;2023-03-22T03:55:56;10.40;99.90
10873;DHT22;34586;53.616;10.032;2023-03-22T03:58:22;10.40;99.90
10873;DHT22;34586;53.616;10.032;2023-03-22T04:00:48;10.40;99.90
10873;DHT22;34586;53.616;10.032;2023-03-22T04:03:14;10.40;99.90
10873;DHT22;34586;53.616;10.032;2023-03-22T04:05:40;10.40;99.90
10873;DHT22;34586;53.616;10.032;2023-03-22T04:08:07;10.50;99.90
10873;DHT22;34586;53.616;10.032;2023-03-22T04:10:33;10.40;99.90
10873;DHT22;34586;53.616;10.032;2023-03-22T04:12:58;10.50;99.90
10873;DHT22;34586;53.616;10.032;2023-03-22T04:15:24;10.40;99.90
10873;DHT22;34586;53.616;10.032;2023-03-22T04:17:51;10.50;99.90
10873;DHT22;34586;53.616;10.032;2023-03-22T04:20:18;10.50;99.90
10873;DHT22;34586;53.616;10.032;2023-03-22T04:22:44;10.40;99.90
10873;DHT22;34586;53.616;10.032;2023-03-22T04:25:12;10.40;99.90
10873;DHT22;34586;53.616;10.032;2023-03-22T04:27:39;10.50;99.90
10873;DHT22;34586;53.616;10.032;2023-03-22T04:30:08;10.40;99.90
10873;DHT22;34586;53.616;10.032;2023-03-22T04:32:37;10.40;99.90
10873;DHT22;34586;53.616;10.032;2023-03-22T04:35:04;10.40;99.90
10873;DHT22;34586;53.616;10.032;2023-03-22T04:37:30;10.40;99.90
10873;DHT22;34586;53.616;10.032;2023-03-22T04:39:56;10.40;99.90
10873;DHT22;34586;53.616;10.032;2023-03-22T04:42:23;10.40;99.90
10873;DHT22;34586;53.616;10.032;2023-03-22T04:44:49;10.40;99.90
10873;DHT22;34586;53.616;10.032;2023-03-22T04:47:15;10.30;99.90
10873;DHT22;34586;53.616;10.032;2023-03-22T04:49:42;10.40;99.90
10873;DHT22;34586;53.616;10.032;2023-03-22T04:52:09;10.40;99.90
10873;DHT22;34586;53.616;10.032;2023-03-22T04:54:35;10.40;99.90
10873;DHT22;34586;53.616;10.032;2023-03-22T04:57:01;10.30;99.90
10873;DHT22;34586;53.616;10.032;2023-03-22T04:59:27;10.30;99.90
10873;DHT22;34586;53.616;10.032;2023-03-22T05:01:52;10.30;99.90
10873;DHT22;34586;53.616;10.032;2023-03-22T05:04:18;10.30;99.90
10873;DHT22;34586;53.616;10.032;2023-03-22T05:06:45;10.30;99.90
10873;DHT22;34586;53.616;10.032;2023-03-22T05:09:11;10.20;99.90
10873;DHT22;34586;53.616;10.032;2023-03-22T05:11:37;10.20;99.90
10873;DHT22;34586;53.616;10.032;2023-03-22T05:14:03;10.20;99.90
10873;DHT22;34586;53.616;10.032;2023-03-22T05:16:29;10.30;99.90
10873;DHT22;34586;53.616;10.032;2023-03-22T05:18:55;10.30;99.90
10873;DHT22;34586;53.616;10.032;2023-03-22T05:21:22;10.30;99.90
10873;DHT22;34586;53.616;10.032;2023-03-22T05:23:54;10.30;99.90
10873;DHT22;34586;53.616;10.032;2023-03-22T05:26:21;10.30;99.90
10873;DHT22;34586;53.616;10.032;2023-03-22T05:28:49;10.30;99.90
10873;DHT22;34586;53.616;10.032;2023-03-22T05:31:16;10.40;99.90
10873;DHT22;34586;53.616;10.032;2023-03-22T05:33:42;10.40;99.90
10873;DHT22;34586;53.616;10.032;2023-03-22T05:36:09;10.40;99.90
10873;DHT22;34586;53.616;10.032;2023-03-22T05:38:36;10.40;99.90
10873;DHT22;34586;53.616;10.032;2023-03-22T05:41:02;10.40;99.90
10873;DHT22;34586;53.616;10.032;2023-03-22T05:43:27;10.40;99.90
10873;DHT22;34586;53.616;10.032;2023-03-22T05:45:53;10.40;99.90
10873;DHT22;34586;53.616;10.032;2023-03-22T05:48:19;10.40;99.90
10873;DHT22;34586;53.616;10.032;2023-03-22T05:50:44;10.50;99.90
10873;DHT22;34586;53.616;10.032;2023-03-22T05:53:10;10.50;99.90
10873;DHT22;34586;53.616;10.032;2023-03-22T05:55:36;10.50;99.90
10873;DHT22;34586;53.616;10.032;2023-03-22T05:58:02;10.50;99.90
10873;DHT22;34586;53.616;10.032;2023-03-22T06:00:30;10.50;99.90
10873;DHT22;34586;53.616;10.032;2023-03-22T06:03:00;10.60;99.90
10873;DHT22;34586;53.616;10.032;2023-03-22T06:05:28;10.50;99.90
10873;DHT22;34586;53.616;10.032;2023-03-22T06:07:56;10.50;99.90
10873;DHT22;34586;53.616;10.032;2023-03-22T06:10:22;10.50;99.90
10873;DHT22;34586;53.616;10.032;2023-03-22T06:12:48;10.50;99.90
10873;DHT22;34586;53.616;10.032;2023-03-22T06:15:14;10.60;99.90
10873;DHT22;34586;53.616;10.032;2023-03-22T06:17:40;10.60;99.90
10873;DHT22;34586;53.616;10.032;2023-03-22T06:20:07;10.60;99.90
10873;DHT22;34586;53.616;10.032;2023-03-22T06:22:35;10.60;99.90
10873;DHT22;34586;53.616;10.032;2023-03-22T06:25:00;10.60;99.90
10873;DHT22;34586;53.616;10.032;2023-03-22T06:27:26;10.80;99.90
10873;DHT22;34586;53.616;10.032;2023-03-22T06:29:52;10.90;99.90
10873;DHT22;34586;53.616;10.032;2023-03-22T06:32:19;10.90;99.90
10873;DHT22;34586;53.616;10.032;2023-03-22T06:34:48;11.00;99.90
10873;DHT22;34586;53.616;10.032;2023-03-22T06:37:14;11.00;99.90
10873;DHT22;34586;53.616;10.032;2023-03-22T06:39:41;11.20;99.90
10873;DHT22;34586;53.616;10.032;2023-03-22T06:42:06;11.20;99.90
10873;DHT22;34586;53.616;10.032;2023-03-22T06:44:32;11.30;99.90
10873;DHT22;34586;53.616;10.032;2023-03-22T06:46:58;11.40;99.90
10873;DHT22;34586;53.616;10.032;2023-03-22T06:49:23;11.50;99.90
10873;DHT22;34586;53.616;10.032;2023-03-22T06:51:49;11.50;99.90
10873;DHT22;34586;53.616;10.032;2023-03-22T06:54:14;11.60;99.90
10873;DHT22;34586;53.616;10.032;2023-03-22T06:56:41;11.60;99.90
10873;DHT22;34586;53.616;10.032;2023-03-22T06:59:07;11.50;99.90
10873;DHT22;34586;53.616;10.032;2023-03-22T07:01:32;11.60;99.90
10873;DHT22;34586;53.616;10.032;2023-03-22T07:03:58;11.60;99.90
10873;DHT22;34586;53.616;10.032;2023-03-22T07:06:24;11.50;99.90
10873;DHT22;34586;53.616;10.032;2023-03-22T07:08:49;11.50;99.90
10873;DHT22;34586;53.616;10.032;2023-03-22T07:11:15;11.60;99.90
10873;DHT22;34586;53.616;10.032;2023-03-22T07:13:41;11.60;99.90
10873;DHT22;34586;53.616;10.032;2023-03-22T07:16:07;11.70;99.90
10873;DHT22;34586;53.616;10.032;2023-03-22T07:18:33;11.60;99.90
10873;DHT22;34586;53.616;10.032;2023-03-22T07:20:58;11.60;99.90
10873;DHT22;34586;53.616;10.032;2023-03-22T07:23:24;11.70;99.90
10873;DHT22;34586;53.616;10.032;2023-03-22T07:25:50;11.70;99.90
10873;DHT22;34586;53.616;10.032;2023-03-22T07:28:16;11.80;99.90
10873;DHT22;34586;53.616;10.032;2023-03-22T07:30:42;11.80;99.90
10873;DHT22;34586;53.616;10.032;2023-03-22T07:33:09;11.80;99.90
10873;DHT22;34586;53.616;10.032;2023-03-22T07:35:35;11.80;99.90
10873;DHT22;34586;53.616;10.032;2023-03-22T07:38:01;11.80;99.90
10873;DHT22;34586;53.616;10.032;2023-03-22T07:40:27;11.70;99.90
10873;DHT22;34586;53.616;10.032;2023-03-22T07:42:53;11.80;99.90
10873;DHT22;34586;53.616;10.032;2023-03-22T07:45:20;11.90;99.90
10873;DHT22;34586;53.616;10.032;2023-03-22T07:47:46;12.00;99.90
10873;DHT22;34586;53.616;10.032;2023-03-22T07:50:12;12.00;99.90
10873;DHT22;34586;53.616;10.032;2023-03-22T07:52:42;12.10;99.90
10873;DHT22;34586;53.616;10.032;2023-03-22T07:55:10;12.10;99.90
10873;DHT22;34586;53.616;10.032;2023-03-22T07:57:36;12.20;99.90
10873;DHT22;34586;53.616;10.032;2023-03-22T08:00:02;12.30;99.90
10873;DHT22;34586;53.616;10.032;2023-03-22T08:02:29;12.30;99.90
10873;DHT22;34586;53.616;10.032;2023-03-22T08:04:55;12.20;99.90
10873;DHT22;34586;53.616;10.032;2023-03-22T08:07:21;12.10;99.90
10873;DHT22;34586;53.616;10.032;2023-03-22T08:09:49;12.30;99.90
10873;DHT22;34586;53.616;10.032;2023-03-22T08:12:15;12.20;99.90
10873;DHT22;34586;53.616;10.032;2023-03-22T08:14:40;12.20;99.90
10873;DHT22;34586;53.616;10.032;2023-03-22T08:17:06;12.30;99.90
10873;DHT22;34586;53.616;10.032;2023-03-22T08:19:32;12.30;99.90
10873;DHT22;34586;53.616;10.032;2023-03-22T08:21:58;12.40;99.90
10873;DHT22;34586;53.616;10.032;2023-03-22T08:24:25;12.40;99.90
10873;DHT22;34586;53.616;10.032;2023-03-22T08:26:51;12.40;99.90
10873;DHT22;34586;53.616;10.032;2023-03-22T08:29:16;12.40;99.90
10873;DHT22;34586;53.616;10.032;2023-03-22T08:31:43;12.40;99.90
10873;DHT22;34586;53.616;10.032;2023-03-22T08:34:09;12.40;99.90
10873;DHT22;34586;53.616;10.032;2023-03-22T08:36:36;12.40;99.90
10873;DHT22;34586;53.616;10.032;2023-03-22T08:39:02;12.40;99.90
10873;DHT22;34586;53.616;10.032;2023-03-22T08:41:28;12.40;99.90
10873;DHT22;34586;53.616;10.032;2023-03-22T08:43:54;12.50;99.90
10873;DHT22;34586;53.616;10.032;2023-03-22T08:46:20;12.50;99.90
10873;DHT22;34586;53.616;10.032;2023-03-22T08:48:46;12.60;99.90
10873;DHT22;34586;53.616;10.032;2023-03-22T08:51:18;12.80;99.90
10873;DHT22;34586;53.616;10.032;2023-03-22T08:53:45;13.10;99.90
10873;DHT22;34586;53.616;10.032;2023-03-22T08:56:11;13.30;99.90
10873;DHT22;34586;53.616;10.032;2023-03-22T08:58:39;13.30;99.90
10873;DHT22;34586;53.616;10.032;2023-03-22T09:01:05;13.50;99.90
10873;DHT22;34586;53.616;10.032;2023-03-22T09:03:30;13.60;99.90
10873;DHT22;34586;53.616;10.032;2023-03-22T09:05:56;13.60;99.90
10873;DHT22;34586;53.616;10.032;2023-03-22T09:08:22;13.60;99.90
10873;DHT22;34586;53.616;10.032;2023-03-22T09:10:48;13.60;99.90
10873;DHT22;34586;53.616;10.032;2023-03-22T09:13:16;13.80;99.90
10873;DHT22;34586;53.616;10.032;2023-03-22T09:15:43;13.70;99.90
10873;DHT22;34586;53.616;10.032;2023-03-22T09:18:09;13.80;99.90
10873;DHT22;34586;53.616;10.032;2023-03-22T09:20:36;13.80;99.90
10873;DHT22;34586;53.616;10.032;2023-03-22T09:23:02;13.80;99.90
10873;DHT22;34586;53.616;10.032;2023-03-22T09:25:28;14.00;99.90
10873;DHT22;34586;53.616;10.032;2023-03-22T09:27:54;14.00;99.90
10873;DHT22;34586;53.616;10.032;2023-03-22T09:30:20;14.20;99.90
10873;DHT22;34586;53.616;10.032;2023-03-22T09:32:45;14.30;99.90
10873;DHT22;34586;53.616;10.032;2023-03-22T09:35:11;14.40;99.90
10873;DHT22;34586;53.616;10.032;2023-03-22T09:37:36;14.20;99.90
10873;DHT22;34586;53.616;10.032;2023-03-22T09:40:03;14.10;99.90
10873;DHT22;34586;53.616;10.032;2023-03-22T09:42:43;14.40;99.90
10873;DHT22;34586;53.616;10.032;2023-03-22T09:45:17;14.40;99.90
10873;DHT22;34586;53.616;10.032;2023-03-22T09:47:46;14.40;99.90
10873;DHT22;34586;53.616;10.032;2023-03-22T09:50:18;14.40;99.90
10873;DHT22;34586;53.616;10.032;2023-03-22T09:52:45;14.20;99.90
10873;DHT22;34586;53.616;10.032;2023-03-22T09:58:19;14.20;99.90
10873;DHT22;34586;53.616;10.032;2023-03-22T10:06:20;14.00;99.90
10873;DHT22;34586;53.616;10.032;2023-03-22T10:09:08;14.10;99.90
10873;DHT22;34586;53.616;10.032;2023-03-22T10:16:41;14.50;99.90
10873;DHT22;34586;53.616;10.032;2023-03-22T10:21:51;14.70;99.90
10873;DHT22;34586;53.616;10.032;2023-03-22T10:24:25;14.60;99.90
10873;DHT22;34586;53.616;10.032;2023-03-22T10:26:52;14.50;99.90
10873;DHT22;34586;53.616;10.032;2023-03-22T10:29:28;14.40;99.90
10873;DHT22;34586;53.616;10.032;2023-03-22T10:34:40;14.50;99.90
10873;DHT22;34586;53.616;10.032;2023-03-22T10:37:14;14.40;99.90
10873;DHT22;34586;53.616;10.032;2023-03-22T10:39:44;14.40;99.90
10873;DHT22;34586;53.616;10.032;2023-03-22T10:42:15;14.40;99.90
10873;DHT22;34586;53.616;10.032;2023-03-22T10:44:55;14.40;99.90
10873;DHT22;34586;53.616;10.032;2023-03-22T10:47:32;14.40;99.90
10873;DHT22;34586;53.616;10.032;2023-03-22T10:50:02;14.30;99.90
10873;DHT22;34586;53.616;10.032;2023-03-22T10:53:02;14.20;99.90
10873;DHT22;34586;53.616;10.032;2023-03-22T10:55:29;14.50;99.90
10873;DHT22;34586;53.616;10.032;2023-03-22T10:58:16;14.60;99.90
10873;DHT22;34586;53.616;10.032;2023-03-22T11:00:53;14.80;99.90
10873;DHT22;34586;53.616;10.032;2023-03-22T11:06:21;14.60;99.90
10873;DHT22;34586;53.616;10.032;2023-03-22T11:09:01;14.50;99.90
10873;DHT22;34586;53.616;10.032;2023-03-22T11:14:32;14.40;99.90
10873;DHT22;34586;53.616;10.032;2023-03-22T11:21:58;14.80;99.90
10873;DHT22;34586;53.616;10.032;2023-03-22T11:24:25;14.90;99.90
10873;DHT22;34586;53.616;10.032;2023-03-22T11:27:06;14.80;99.90
10873;DHT22;34586;53.616;10.032;2023-03-22T11:29:41;14.70;99.90
10873;DHT22;34586;53.616;10.032;2023-03-22T11:32:21;14.70;99.90
10873;DHT22;34586;53.616;10.032;2023-03-22T11:34:47;14.70;99.90
10873;DHT22;34586;53.616;10.032;2023-03-22T11:37:16;14.80;99.90
10873;DHT22;34586;53.616;10.032;2023-03-22T11:39:46;14.70;99.90
10873;DHT22;34586;53.616;10.032;2023-03-22T11:42:18;14.70;99.90
10873;DHT22;34586;53.616;10.032;2023-03-22T11:44:45;14.60;99.90
10873;DHT22;34586;53.616;10.032;2023-03-22T11:47:12;14.60;99.90
10873;DHT22;34586;53.616;10.032;2023-03-22T11:50:05;14.60;99.90
10873;DHT22;34586;53.616;10.032;2023-03-22T11:52:31;14.50;99.90
10873;DHT22;34586;53.616;10.032;2023-03-22T11:54:58;14.50;99.90
10873;DHT22;34586;53.616;10.032;2023-03-22T11:57:29;14.40;99.90
10873;DHT22;34586;53.616;10.032;2023-03-22T12:02:52;14.40;99.90
10873;DHT22;34586;53.616;10.032;2023-03-22T12:05:36;14.50;99.90
10873;DHT22;34586;53.616;10.032;2023-03-22T12:10:40;14.70;99.90
10873;DHT22;34586;53.616;10.032;2023-03-22T12:13:18;14.70;99.90
10873;DHT22;34586;53.616;10.032;2023-03-22T12:15:47;14.70;99.90
10873;DHT22;34586;53.616;10.032;2023-03-22T12:18:30;14.70;99.90
10873;DHT22;34586;53.616;10.032;2023-03-22T12:20:58;14.70;99.90
10873;DHT22;34586;53.616;10.032;2023-03-22T12:23:30;14.60;99.90
10873;DHT22;34586;53.616;10.032;2023-03-22T12:26:01;14.60;99.90
10873;DHT22;34586;53.616;10.032;2023-03-22T12:31:16;14.70;99.90
10873;DHT22;34586;53.616;10.032;2023-03-22T12:33:49;14.70;99.90
10873;DHT22;34586;53.616;10.032;2023-03-22T12:36:19;14.70;99.90
10873;DHT22;34586;53.616;10.032;2023-03-22T12:38:53;14.60;99.90
10873;DHT22;34586;53.616;10.032;2023-03-22T12:41:38;14.50;99.90
10873;DHT22;34586;53.616;10.032;2023-03-22T12:44:17;14.40;99.90
10873;DHT22;34586;53.616;10.032;2023-03-22T12:46:49;14.40;99.90
10873;DHT22;34586;53.616;10.032;2023-03-22T12:49:58;14.40;99.90
10873;DHT22;34586;53.616;10.032;2023-03-22T12:54:57;14.40;99.90
10873;DHT22;34586;53.616;10.032;2023-03-22T12:57:25;14.40;99.90
10873;DHT22;34586;53.616;10.032;2023-03-22T12:59:53;14.40;99.90
10873;DHT22;34586;53.616;10.032;2023-03-22T13:02:30;14.40;99.90
10873;DHT22;34586;53.616;10.032;2023-03-22T13:04:59;14.30;99.90
10873;DHT22;34586;53.616;10.032;2023-03-22T13:07:38;14.10;99.90
10873;DHT22;34586;53.616;10.032;2023-03-22T13:21:28;13.50;99.90
10873;DHT22;34586;53.616;10.032;2023-03-22T13:24:00;13.30;99.90
10873;DHT22;34586;53.616;10.032;2023-03-22T13:26:53;13.30;99.90
10873;DHT22;34586;53.616;10.032;2023-03-22T13:29:23;13.20;99.90
10873;DHT22;34586;53.616;10.032;2023-03-22T13:31:57;13.10;99.90
10873;DHT22;34586;53.616;10.032;2023-03-22T13:34:41;13.10;99.90
10873;DHT22;34586;53.616;10.032;2023-03-22T13:37:15;13.00;99.90
10873;DHT22;34586;53.616;10.032;2023-03-22T13:39:49;12.90;99.90
10873;DHT22;34586;53.616;10.032;2023-03-22T13:42:21;13.00;99.90
10873;DHT22;34586;53.616;10.032;2023-03-22T13:44:58;13.00;99.90
10873;DHT22;34586;53.616;10.032;2023-03-22T13:50:27;13.00;99.90
10873;DHT22;34586;53.616;10.032;2023-03-22T13:53:05;13.10;99.90
10873;DHT22;34586;53.616;10.032;2023-03-22T14:03:45;13.00;99.90
10873;DHT22;34586;53.616;10.032;2023-03-22T14:06:23;13.00;99.90
10873;DHT22;34586;53.616;10.032;2023-03-22T14:08:56;13.10;99.90
10873;DHT22;34586;53.616;10.032;2023-03-22T14:11:27;13.10;99.90
10873;DHT22;34586;53.616;10.032;2023-03-22T14:14:09;13.10;99.90
10873;DHT22;34586;53.616;10.032;2023-03-22T14:16:49;13.10;99.90
10873;DHT22;34586;53.616;10.032;2023-03-22T14:19:22;13.00;99.90
10873;DHT22;34586;53.616;10.032;2023-03-22T14:21:55;13.00;99.90
10873;DHT22;34586;53.616;10.032;2023-03-22T14:24:23;13.00;99.90
10873;DHT22;34586;53.616;10.032;2023-03-22T14:26:55;13.00;99.90
10873;DHT22;34586;53.616;10.032;2023-03-22T14:29:23;13.00;99.90
10873;DHT22;34586;53.616;10.032;2023-03-22T14:31:56;13.00;99.90
10873;DHT22;34586;53.616;10.032;2023-03-22T14:34:25;12.90;99.90
10873;DHT22;34586;53.616;10.032;2023-03-22T14:36:57;12.90;99.90
10873;DHT22;34586;53.616;10.032;2023-03-22T14:39:33;13.10;99.90
10873;DHT22;34586;53.616;10.032;2023-03-22T14:44:41;13.30;99.90
10873;DHT22;34586;53.616;10.032;2023-03-22T14:47:15;13.30;99.90
10873;DHT22;34586;53.616;10.032;2023-03-22T14:49:45;13.10;99.90
10873;DHT22;34586;53.616;10.032;2023-03-22T14:52:17;13.30;99.90
10873;DHT22;34586;53.616;10.032;2023-03-22T14:54:47;13.40;99.90
10873;DHT22;34586;53.616;10.032;2023-03-22T14:57:14;13.30;99.90
10873;DHT22;34586;53.616;10.032;2023-03-22T14:59:43;13.20;99.90
10873;DHT22;34586;53.616;10.032;2023-03-22T15:02:28;13.20;99.90
10873;DHT22;34586;53.616;10.032;2023-03-22T15:04:56;13.20;99.90
10873;DHT22;34586;53.616;10.032;2023-03-22T15:07:22;13.10;99.90
10873;DHT22;34586;53.616;10.032;2023-03-22T15:09:48;13.10;99.90
10873;DHT22;34586;53.616;10.032;2023-03-22T15:12:15;13.00;99.90
10873;DHT22;34586;53.616;10.032;2023-03-22T15:14:43;13.00;99.90
10873;DHT22;34586;53.616;10.032;2023-03-22T15:17:12;13.10;99.90
10873;DHT22;34586;53.616;10.032;2023-03-22T15:19:49;13.00;99.90
10873;DHT22;34586;53.616;10.032;2023-03-22T15:22:18;13.10;99.90
10873;DHT22;34586;53.616;10.032;2023-03-22T15:24:59;13.00;99.90
10873;DHT22;34586;53.616;10.032;2023-03-22T15:27:28;12.90;99.90
10873;DHT22;34586;53.616;10.032;2023-03-22T15:29:55;12.90;99.90
10873;DHT22;34586;53.616;10.032;2023-03-22T15:32:23;12.90;99.90
10873;DHT22;34586;53.616;10.032;2023-03-22T15:34:51;12.90;99.90
10873;DHT22;34586;53.616;10.032;2023-03-22T15:37:25;12.90;99.90
10873;DHT22;34586;53.616;10.032;2023-03-22T15:39:53;12.90;99.90
10873;DHT22;34586;53.616;10.032;2023-03-22T15:42:33;13.00;99.90
10873;DHT22;34586;53.616;10.032;2023-03-22T15:45:11;13.00;99.90
10873;DHT22;34586;53.616;10.032;2023-03-22T15:48:10;12.90;99.90
10873;DHT22;34586;53.616;10.032;2023-03-22T15:50:39;12.80;99.90
10873;DHT22;34586;53.616;10.032;2023-03-22T15:53:08;12.80;99.90
10873;DHT22;34586;53.616;10.032;2023-03-22T15:55:37;12.80;99.90
10873;DHT22;34586;53.616;10.032;2023-03-22T15:58:14;12.80;99.90
10873;DHT22;34586;53.616;10.032;2023-03-22T16:00:41;12.90;99.90
10873;DHT22;34586;53.616;10.032;2023-03-22T16:05:38;12.80;99.90
10873;DHT22;34586;53.616;10.032;2023-03-22T16:08:05;12.80;99.90
10873;DHT22;34586;53.616;10.032;2023-03-22T16:10:33;12.80;99.90
10873;DHT22;34586;53.616;10.032;2023-03-22T16:13:00;12.90;99.90
10873;DHT22;34586;53.616;10.032;2023-03-22T16:15:29;12.80;99.90
10873;DHT22;34586;53.616;10.032;2023-03-22T16:17:55;12.80;99.90
10873;DHT22;34586;53.616;10.032;2023-03-22T16:20:22;12.70;99.90
10873;DHT22;34586;53.616;10.032;2023-03-22T16:22:49;12.70;99.90
10873;DHT22;34586;53.616;10.032;2023-03-22T16:25:18;12.70;99.90
10873;DHT22;34586;53.616;10.032;2023-03-22T16:27:44;12.70;99.90
10873;DHT22;34586;53.616;10.032;2023-03-22T16:30:12;12.70;99.90
10873;DHT22;34586;53.616;10.032;2023-03-22T16:32:38;12.70;99.90
10873;DHT22;34586;53.616;10.032;2023-03-22T16:35:08;12.50;99.90
10873;DHT22;34586;53.616;10.032;2023-03-22T16:37:35;12.60;99.90
10873;DHT22;34586;53.616;10.032;2023-03-22T16:40:01;12.70;99.90
10873;DHT22;34586;53.616;10.032;2023-03-22T16:42:27;12.60;99.90
10873;DHT22;34586;53.616;10.032;2023-03-22T16:44:53;12.60;99.90
10873;DHT22;34586;53.616;10.032;2023-03-22T16:47:23;12.60;99.90
10873;DHT22;34586;53.616;10.032;2023-03-22T16:49:51;12.60;99.90
10873;DHT22;34586;53.616;10.032;2023-03-22T16:52:22;12.60;99.90
10873;DHT22;34586;53.616;10.032;2023-03-22T16:54:50;12.60;99.90
10873;DHT22;34586;53.616;10.032;2023-03-22T16:57:23;12.50;99.90
10873;DHT22;34586;53.616;10.032;2023-03-22T16:59:52;12.50;99.90
10873;DHT22;34586;53.616;10.032;2023-03-22T17:02:32;12.50;99.90
10873;DHT22;34586;53.616;10.032;2023-03-22T17:04:58;12.50;99.90
10873;DHT22;34586;53.616;10.032;2023-03-22T17:07:27;12.40;99.90
10873;DHT22;34586;53.616;10.032;2023-03-22T17:09:53;12.40;99.90
10873;DHT22;34586;53.616;10.032;2023-03-22T17:12:27;12.60;99.90
10873;DHT22;34586;53.616;10.032;2023-03-22T17:14:54;12.40;99.90
10873;DHT22;34586;53.616;10.032;2023-03-22T17:17:20;12.40;99.90
10873;DHT22;34586;53.616;10.032;2023-03-22T17:19:47;12.30;99.90
10873;DHT22;34586;53.616;10.032;2023-03-22T17:22:14;12.30;99.90